| time (UTC) | temp F | wind direction | speed knots | gust knots | rain 1hr in | rain 24hr in | rain mn in | humidity % | barometer mb |
| 20260504050527 | 46 | 0.0 | 0.0 | 0.00 | 0.00 | 0.00 | 81 | 1016.0 | |
| 20260504045540 | 44 | 0.0 | 0.0 | 0.00 | 0.00 | 0.00 | 84 | 1015.9 | |
| 20260504044539 | 43 | 0.0 | 0.0 | 0.00 | 0.00 | 0.00 | 86 | 1015.9 | |
| 20260504043540 | 42 | 0.0 | 0.0 | 0.00 | 0.00 | 0.00 | 86 | 1015.9 | |
| 20260504042540 | 43 | 0.0 | 0.0 | 0.00 | 0.00 | 0.00 | 85 | 1015.9 | |
| 20260504041540 | 43 | 0.0 | 0.0 | 0.00 | 0.00 | 0.00 | 85 | 1015.9 | |
| 20260504040526 | 43 | 0.0 | 0.0 | 0.00 | 0.00 | 0.00 | 84 | 1016.0 | |
| 20260504035539 | 43 | 0.0 | 0.0 | 0.00 | 0.00 | 0.00 | 84 | 1016.0 | |
| 20260504034538 | 43 | 0.0 | 0.0 | 0.00 | 0.00 | 0.00 | 84 | 1015.9 | |
| 20260504033538 | 43 | 0.0 | 0.0 | 0.00 | 0.00 | 0.00 | 85 | 1015.7 | |
| 20260504032525 | 44 | 0.0 | 0.0 | 0.00 | 0.00 | 0.00 | 84 | 1015.7 | |
| 20260504031526 | 44 | 0.0 | 0.0 | 0.00 | 0.00 | 0.00 | 83 | 1015.8 | |
| 20260504030538 | 44 | 0.0 | 0.0 | 0.00 | 0.00 | 0.00 | 82 | 1015.8 | |
| 20260504025559 | 44 | 0.0 | 0.0 | 0.00 | 0.00 | 0.00 | 81 | 1015.7 | |
| 20260504024539 | 45 | 0.0 | 0.0 | 0.00 | 0.00 | 0.00 | 81 | 1015.6 | |
| 20260504023526 | 45 | 0.0 | 0.0 | 0.00 | 0.00 | 0.00 | 81 | 1015.7 | |
| 20260504022538 | 45 | 0.0 | 0.0 | 0.00 | 0.00 | 0.00 | 80 | 1015.8 | |
| 20260504021525 | 46 | 0.0 | 0.0 | 0.00 | 0.00 | 0.00 | 79 | 1015.7 | |
| 20260504020538 | 46 | 0.0 | 0.0 | 0.00 | 0.00 | 0.00 | 77 | 1015.6 | |
| 20260504015538 | 46 | 0.0 | 0.0 | 0.00 | 0.00 | 0.00 | 74 | 1015.6 | |
| 20260504014538 | 47 | 0.0 | 0.0 | 0.00 | 0.00 | 0.00 | 72 | 1015.5 | |
| 20260504013558 | 47 | 0.0 | 0.0 | 0.00 | 0.00 | 0.00 | 71 | 1015.5 | |
| 20260504012525 | 48 | 0.0 | 0.0 | 0.00 | 0.00 | 0.00 | 69 | 1015.4 | |
| 20260504011538 | 49 | 0.0 | 0.0 | 0.00 | 0.00 | 0.00 | 68 | 1015.3 | |
| 20260504010525 | 49 | 0.0 | 0.0 | 0.00 | 0.00 | 0.00 | 66 | 1015.3 | |
| 20260504005538 | 50 | 0.0 | 0.0 | 0.00 | 0.00 | 0.00 | 63 | 1015.3 | |
| 20260504004538 | 50 | 0.0 | 0.0 | 0.00 | 0.00 | 0.00 | 61 | 1015.1 | |
| 20260504003545 | 51 | 0.0 | 0.0 | 0.00 | 0.00 | 0.00 | 58 | 1015.0 | |
| 20260504002538 | 53 | 0.0 | 0.0 | 0.00 | 0.00 | 0.00 | 55 | 1014.9 | |
| 20260504001538 | 54 | 0.0 | 0.0 | 0.00 | 0.00 | 0.00 | 51 | 1014.7 | |
| 20260504000525 | 55 | 0.0 | 0.0 | 0.00 | 0.00 | 0.00 | 48 | 1014.6 | |
| 20260503235637 | 56 | 0.0 | 0.0 | 0.00 | 0.00 | 0.00 | 46 | 1014.5 | |
| 20260503234558 | 57 | 0.0 | 0.0 | 0.00 | 0.00 | 0.00 | 41 | 1014.4 | |
| 20260503233537 | 58 | 0.0 | 0.0 | 0.00 | 0.00 | 0.00 | 40 | 1014.4 | |
| 20260503232525 | 59 | 0.0 | 0.0 | 0.00 | 0.00 | 0.00 | 37 | 1014.4 | |
| 20260503231537 | 60 | 0.0 | 0.0 | 0.00 | 0.00 | 0.00 | 35 | 1014.3 | |
| 20260503230537 | 61 | 0.0 | 0.0 | 0.00 | 0.00 | 0.00 | 31 | 1014.2 | |
| 20260503225537 | 63 | 0.0 | 0.0 | 0.00 | 0.00 | 0.00 | 29 | 1014.2 | |
| 20260503224617 | 63 | 0.0 | 0.0 | 0.00 | 0.00 | 0.00 | 30 | 1014.3 | |
| 20260503223537 | 64 | 0.0 | 0.0 | 0.00 | 0.00 | 0.00 | 28 | 1014.3 | |
| 20260503222537 | 64 | 0.0 | 1.7 | 0.00 | 0.00 | 0.00 | 29 | 1014.2 | |
| 20260503221538 | 63 | 0.0 | 2.6 | 0.00 | 0.00 | 0.00 | 28 | 1014.3 | |
| 20260503220537 | 64 | 0.0 | 2.6 | 0.00 | 0.00 | 0.00 | 28 | 1014.3 | |
| 20260503215525 | 64 | 0.0 | 1.7 | 0.00 | 0.00 | 0.00 | 29 | 1014.3 | |
| 20260503214537 | 64 | 0.0 | 3.5 | 0.00 | 0.00 | 0.00 | 28 | 1014.2 | |
| 20260503213538 | 64 | 225 | 0.9 | 5.2 | 0.00 | 0.00 | 0.00 | 28 | 1014.2 |
| 20260503212525 | 63 | 248 | 0.9 | 3.5 | 0.00 | 0.00 | 0.00 | 27 | 1014.2 |
| 20260503211537 | 64 | 248 | 2.6 | 12.2 | 0.00 | 0.00 | 0.00 | 27 | 1014.3 |
| 20260503210527 | 64 | 0.0 | 3.5 | 0.00 | 0.00 | 0.00 | 29 | 1014.3 | |
| 20260503205526 | 64 | 225 | 0.9 | 3.5 | 0.00 | 0.00 | 0.00 | 28 | 1014.2 |
| 20260503204619 | 64 | 0.0 | 2.6 | 0.00 | 0.00 | 0.00 | 28 | 1014.2 | |
| 20260503203539 | 64 | 0.0 | 3.5 | 0.00 | 0.00 | 0.00 | 28 | 1014.1 | |
| 20260503202539 | 63 | 0.0 | 1.7 | 0.00 | 0.00 | 0.00 | 31 | 1014.1 | |
| 20260503201540 | 63 | 225 | 0.9 | 5.2 | 0.00 | 0.00 | 0.00 | 28 | 1014.2 |
| 20260503200526 | 63 | 0.0 | 2.6 | 0.00 | 0.00 | 0.00 | 29 | 1014.4 | |
| 20260503195527 | 63 | 225 | 0.9 | 12.2 | 0.00 | 0.00 | 0.00 | 28 | 1014.6 |
| 20260503194539 | 63 | 270 | 1.7 | 8.7 | 0.00 | 0.00 | 0.00 | 31 | 1014.7 |
| 20260503193539 | 63 | 248 | 1.7 | 5.2 | 0.00 | 0.00 | 0.00 | 29 | 1014.7 |
| 20260503192539 | 62 | 248 | 1.7 | 6.1 | 0.00 | 0.00 | 0.00 | 29 | 1015.1 |
| 20260503191539 | 63 | 225 | 1.7 | 11.3 | 0.00 | 0.00 | 0.00 | 28 | 1015.2 |
| 20260503190539 | 63 | 0.0 | 0.0 | 0.00 | 0.00 | 0.00 | 37 | 1015.2 | |
| 20260503185526 | 62 | 248 | 1.7 | 8.7 | 0.00 | 0.00 | 0.00 | 30 | 1015.5 |
| 20260503184539 | 62 | 225 | 0.9 | 4.3 | 0.00 | 0.00 | 0.00 | 33 | 1015.6 |
| 20260503183527 | 62 | 225 | 0.9 | 8.7 | 0.00 | 0.00 | 0.00 | 30 | 1015.5 |
| 20260503182539 | 61 | 225 | 0.9 | 7.0 | 0.00 | 0.00 | 0.00 | 34 | 1015.6 |
| 20260503181539 | 61 | 225 | 1.7 | 7.8 | 0.00 | 0.00 | 0.00 | 36 | 1015.7 |
| 20260503180539 | 61 | 0.0 | 4.3 | 0.00 | 0.00 | 0.00 | 38 | 1015.7 | |
| 20260503175526 | 61 | 0.0 | 1.7 | 0.00 | 0.00 | 0.00 | 42 | 1015.7 | |
| 20260503174526 | 60 | 0.0 | 0.9 | 0.00 | 0.00 | 0.00 | 39 | 1016.0 | |
| 20260503173540 | 59 | 0.0 | 1.7 | 0.00 | 0.00 | 0.00 | 39 | 1016.1 | |
| 20260503172539 | 60 | 0.0 | 5.2 | 0.00 | 0.00 | 0.00 | 37 | 1016.1 | |
| 20260503171539 | 60 | 0.0 | 0.9 | 0.00 | 0.00 | 0.00 | 37 | 1016.2 | |
| 20260503170539 | 58 | 225 | 1.7 | 10.4 | 0.00 | 0.00 | 0.00 | 38 | 1016.2 |
| 20260503150558 | 56 | 0.0 | 0.9 | 0.00 | 0.00 | 0.00 | 43 | 1016.8 | |
| 20260503130538 | 53 | 0.0 | 5.2 | 0.00 | 0.00 | 0.00 | 55 | 1016.5 | |
| 20260503110538 | 45 | 0.0 | 0.9 | 0.00 | 0.00 | 0.00 | 70 | 1015.7 | |
| 20260503081524 | 51 | 0.0 | 0.0 | 0.00 | 0.00 | 0.00 | 58 | 1013.0 | |
| 20260503080557 | 51 | 0.0 | 3.5 | 0.00 | 0.00 | 0.00 | 58 | 1012.9 | |
| 20260503072544 | 51 | 0.0 | 0.0 | 0.00 | 0.00 | 0.00 | 62 | 1012.5 | |
| 20260503071617 | 51 | 0.0 | 0.0 | 0.00 | 0.00 | 0.00 | 63 | 1012.4 | |
| 20260503070524 | 51 | 0.0 | 0.0 | 0.00 | 0.00 | 0.00 | 63 | 1012.3 |